sensor_id;sensor_type;location;lat;lon;timestamp;pressure;altitude;pressure_sealevel;temperature;humidity
47104;BME280;32853;52.164;5.400;2023-02-22T00:00:35;101484.19;;;9.93;100.00
47104;BME280;32853;52.164;5.400;2023-02-22T00:03:26;101494.59;;;9.94;100.00
47104;BME280;32853;52.164;5.400;2023-02-22T00:06:05;101481.72;;;9.86;100.00
47104;BME280;32853;52.164;5.400;2023-02-22T00:08:41;101466.03;;;9.88;100.00
47104;BME280;32853;52.164;5.400;2023-02-22T00:11:17;101490.84;;;10.04;100.00
47104;BME280;32853;52.164;5.400;2023-02-22T00:13:45;101449.78;;;9.77;100.00
47104;BME280;32853;52.164;5.400;2023-02-22T00:16:15;101484.75;;;9.71;100.00
47104;BME280;32853;52.164;5.400;2023-02-22T00:18:45;101493.06;;;9.85;100.00
47104;BME280;32853;52.164;5.400;2023-02-22T00:21:20;101482.34;;;9.96;100.00
47104;BME280;32853;52.164;5.400;2023-02-22T00:23:46;101476.19;;;9.97;100.00
47104;BME280;32853;52.164;5.400;2023-02-22T00:26:14;101460.00;;;9.84;100.00
47104;BME280;32853;52.164;5.400;2023-02-22T00:29:08;101480.28;;;10.09;100.00
47104;BME280;32853;52.164;5.400;2023-02-22T00:31:45;101489.94;;;10.05;100.00
47104;BME280;32853;52.164;5.400;2023-02-22T00:34:15;101476.94;;;10.02;100.00
47104;BME280;32853;52.164;5.400;2023-02-22T00:36:45;101491.56;;;10.09;100.00
47104;BME280;32853;52.164;5.400;2023-02-22T00:39:14;101487.56;;;9.96;100.00
47104;BME280;32853;52.164;5.400;2023-02-22T00:41:40;101488.06;;;9.78;100.00
47104;BME280;32853;52.164;5.400;2023-02-22T00:44:05;101455.25;;;9.68;100.00
47104;BME280;32853;52.164;5.400;2023-02-22T00:46:37;101471.41;;;9.82;100.00
47104;BME280;32853;52.164;5.400;2023-02-22T00:49:04;101351.44;;;9.11;100.00
47104;BME280;32853;52.164;5.400;2023-02-22T00:51:29;101454.63;;;9.58;100.00
47104;BME280;32853;52.164;5.400;2023-02-22T00:53:55;101433.69;;;9.59;100.00
47104;BME280;32853;52.164;5.400;2023-02-22T00:56:20;101348.00;;;9.09;100.00
47104;BME280;32853;52.164;5.400;2023-02-22T00:58:45;101463.41;;;9.88;100.00
47104;BME280;32853;52.164;5.400;2023-02-22T01:01:14;101439.16;;;9.83;100.00
47104;BME280;32853;52.164;5.400;2023-02-22T01:03:39;101446.84;;;9.89;100.00
47104;BME280;32853;52.164;5.400;2023-02-22T01:06:06;101414.19;;;9.73;100.00
47104;BME280;32853;52.164;5.400;2023-02-22T01:08:31;101408.31;;;9.65;100.00
47104;BME280;32853;52.164;5.400;2023-02-22T01:10:56;101318.19;;;9.17;100.00
47104;BME280;32853;52.164;5.400;2023-02-22T07:49:46;101126.06;;;7.83;100.00
47104;BME280;32853;52.164;5.400;2023-02-22T07:52:11;101135.78;;;8.12;100.00
47104;BME280;32853;52.164;5.400;2023-02-22T07:54:41;101056.34;;;7.58;100.00
47104;BME280;32853;52.164;5.400;2023-02-22T07:57:06;101216.00;;;8.33;100.00
47104;BME280;32853;52.164;5.400;2023-02-22T07:59:31;101154.06;;;8.09;100.00
47104;BME280;32853;52.164;5.400;2023-02-22T08:01:59;101159.25;;;8.09;100.00
47104;BME280;32853;52.164;5.400;2023-02-22T08:04:40;101145.34;;;8.11;100.00
47104;BME280;32853;52.164;5.400;2023-02-22T08:07:18;101181.09;;;8.40;100.00
47104;BME280;32853;52.164;5.400;2023-02-22T08:09:44;101142.88;;;8.05;100.00
47104;BME280;32853;52.164;5.400;2023-02-22T08:12:09;101191.81;;;8.28;100.00
47104;BME280;32853;52.164;5.400;2023-02-22T08:14:35;101146.66;;;7.92;100.00
47104;BME280;32853;52.164;5.400;2023-02-22T08:17:01;101197.47;;;8.10;100.00
47104;BME280;32853;52.164;5.400;2023-02-22T08:19:36;101172.06;;;8.18;100.00
47104;BME280;32853;52.164;5.400;2023-02-22T08:22:03;101186.22;;;8.08;100.00
47104;BME280;32853;52.164;5.400;2023-02-22T08:24:28;101175.28;;;8.29;100.00
47104;BME280;32853;52.164;5.400;2023-02-22T08:26:54;101197.09;;;8.25;100.00
47104;BME280;32853;52.164;5.400;2023-02-22T08:29:19;101169.41;;;8.21;100.00
47104;BME280;32853;52.164;5.400;2023-02-22T08:31:54;101169.31;;;8.24;100.00
47104;BME280;32853;52.164;5.400;2023-02-22T08:34:32;101162.13;;;8.35;100.00
47104;BME280;32853;52.164;5.400;2023-02-22T08:36:59;101180.34;;;8.37;100.00
47104;BME280;32853;52.164;5.400;2023-02-22T08:39:25;101167.13;;;8.44;100.00
47104;BME280;32853;52.164;5.400;2023-02-22T08:41:54;101135.56;;;8.20;100.00
47104;BME280;32853;52.164;5.400;2023-02-22T08:44:19;101185.50;;;8.38;100.00
47104;BME280;32853;52.164;5.400;2023-02-22T08:46:53;101193.22;;;8.43;100.00
47104;BME280;32853;52.164;5.400;2023-02-22T08:49:19;101143.50;;;8.15;100.00
47104;BME280;32853;52.164;5.400;2023-02-22T08:52:03;101184.78;;;8.32;100.00
47104;BME280;32853;52.164;5.400;2023-02-22T08:54:28;101167.34;;;8.34;100.00
47104;BME280;32853;52.164;5.400;2023-02-22T08:56:58;101181.91;;;8.44;100.00
47104;BME280;32853;52.164;5.400;2023-02-22T08:59:32;101166.34;;;8.39;100.00
47104;BME280;32853;52.164;5.400;2023-02-22T09:01:59;101160.00;;;8.50;100.00
47104;BME280;32853;52.164;5.400;2023-02-22T09:04:30;101167.28;;;8.71;100.00
47104;BME280;32853;52.164;5.400;2023-02-22T09:07:02;101164.66;;;8.71;100.00
47104;BME280;32853;52.164;5.400;2023-02-22T09:09:28;101092.75;;;8.30;100.00
47104;BME280;32853;52.164;5.400;2023-02-22T09:11:53;101124.69;;;8.38;100.00
47104;BME280;32853;52.164;5.400;2023-02-22T09:14:19;101177.66;;;8.72;100.00
47104;BME280;32853;52.164;5.400;2023-02-22T09:16:44;101114.56;;;8.60;100.00
47104;BME280;32853;52.164;5.400;2023-02-22T09:19:23;101150.38;;;8.84;100.00
47104;BME280;32853;52.164;5.400;2023-02-22T09:21:56;101090.97;;;8.64;100.00
47104;BME280;32853;52.164;5.400;2023-02-22T09:24:41;101153.66;;;8.92;100.00
47104;BME280;32853;52.164;5.400;2023-02-22T09:27:10;101161.97;;;9.05;100.00
47104;BME280;32853;52.164;5.400;2023-02-22T09:29:42;101160.22;;;9.06;100.00
47104;BME280;32853;52.164;5.400;2023-02-22T09:32:17;101157.88;;;8.96;100.00
47104;BME280;32853;52.164;5.400;2023-02-22T09:34:45;101100.72;;;8.58;100.00
47104;BME280;32853;52.164;5.400;2023-02-22T09:37:12;101154.25;;;9.02;100.00
47104;BME280;32853;52.164;5.400;2023-02-22T09:39:48;101146.53;;;8.99;100.00
47104;BME280;32853;52.164;5.400;2023-02-22T09:42:24;101139.78;;;9.21;100.00
47104;BME280;32853;52.164;5.400;2023-02-22T09:45:05;101126.41;;;9.02;100.00
47104;BME280;32853;52.164;5.400;2023-02-22T09:47:56;101126.84;;;9.17;100.00
47104;BME280;32853;52.164;5.400;2023-02-22T09:50:29;101090.09;;;8.95;100.00
47104;BME280;32853;52.164;5.400;2023-02-22T09:55:33;101109.16;;;8.97;100.00
47104;BME280;32853;52.164;5.400;2023-02-22T09:58:23;101049.47;;;8.86;100.00
47104;BME280;32853;52.164;5.400;2023-02-22T10:00:56;101058.22;;;9.15;100.00
47104;BME280;32853;52.164;5.400;2023-02-22T10:03:51;101109.03;;;9.59;100.00
47104;BME280;32853;52.164;5.400;2023-02-22T10:06:34;101115.84;;;9.65;100.00
47104;BME280;32853;52.164;5.400;2023-02-22T10:09:10;101114.63;;;9.75;100.00
47104;BME280;32853;52.164;5.400;2023-02-22T10:11:59;101104.84;;;9.81;100.00
47104;BME280;32853;52.164;5.400;2023-02-22T10:14:47;101092.84;;;9.76;100.00
47104;BME280;32853;52.164;5.400;2023-02-22T10:25:38;101108.13;;;9.88;100.00
47104;BME280;32853;52.164;5.400;2023-02-22T10:30:41;101065.25;;;9.94;100.00
47104;BME280;32853;52.164;5.400;2023-02-22T10:33:14;101109.13;;;10.10;100.00
47104;BME280;32853;52.164;5.400;2023-02-22T10:35:52;101105.09;;;10.27;100.00
47104;BME280;32853;52.164;5.400;2023-02-22T10:41:29;101096.97;;;10.59;100.00
47104;BME280;32853;52.164;5.400;2023-02-22T10:43:55;101044.91;;;10.28;100.00
47104;BME280;32853;52.164;5.400;2023-02-22T10:46:21;101017.41;;;10.16;100.00
47104;BME280;32853;52.164;5.400;2023-02-22T10:48:59;101022.16;;;10.32;100.00
47104;BME280;32853;52.164;5.400;2023-02-22T10:51:40;101059.78;;;10.51;100.00
47104;BME280;32853;52.164;5.400;2023-02-22T10:54:36;101111.78;;;10.84;100.00
47104;BME280;32853;52.164;5.400;2023-02-22T10:57:28;101102.47;;;10.76;100.00
47104;BME280;32853;52.164;5.400;2023-02-22T11:00:19;101098.31;;;10.94;100.00
47104;BME280;32853;52.164;5.400;2023-02-22T11:03:17;101098.94;;;11.01;100.00
47104;BME280;32853;52.164;5.400;2023-02-22T11:05:43;101085.63;;;10.84;100.00
47104;BME280;32853;52.164;5.400;2023-02-22T11:08:25;101086.13;;;10.93;100.00
47104;BME280;32853;52.164;5.400;2023-02-22T11:11:20;101057.63;;;10.86;100.00
47104;BME280;32853;52.164;5.400;2023-02-22T11:13:55;101009.69;;;10.62;100.00
47104;BME280;32853;52.164;5.400;2023-02-22T11:16:34;101031.31;;;10.90;100.00
47104;BME280;32853;52.164;5.400;2023-02-22T11:19:33;101075.13;;;11.07;100.00
47104;BME280;32853;52.164;5.400;2023-02-22T11:22:39;101080.03;;;11.16;100.00
47104;BME280;32853;52.164;5.400;2023-02-22T11:25:07;101042.78;;;10.86;100.00
47104;BME280;32853;52.164;5.400;2023-02-22T11:27:40;101075.25;;;11.04;100.00
47104;BME280;32853;52.164;5.400;2023-02-22T11:30:28;101084.03;;;11.03;100.00
47104;BME280;32853;52.164;5.400;2023-02-22T11:35:58;101078.63;;;11.29;100.00
47104;BME280;32853;52.164;5.400;2023-02-22T11:39:19;101076.50;;;11.17;100.00
47104;BME280;32853;52.164;5.400;2023-02-22T11:41:13;101077.06;;;11.25;100.00
47104;BME280;32853;52.164;5.400;2023-02-22T11:43:52;101071.88;;;11.24;100.00
47104;BME280;32853;52.164;5.400;2023-02-22T11:56:35;101006.72;;;11.16;100.00
47104;BME280;32853;52.164;5.400;2023-02-22T12:05:27;101039.06;;;11.59;100.00
47104;BME280;32853;52.164;5.400;2023-02-22T12:08:15;101048.63;;;11.60;100.00
47104;BME280;32853;52.164;5.400;2023-02-22T12:11:12;101051.84;;;11.67;100.00
47104;BME280;32853;52.164;5.400;2023-02-22T12:14:09;100965.34;;;11.26;100.00
47104;BME280;32853;52.164;5.400;2023-02-22T12:19:59;101044.56;;;11.73;100.00
47104;BME280;32853;52.164;5.400;2023-02-22T12:22:33;101025.66;;;11.67;100.00
47104;BME280;32853;52.164;5.400;2023-02-22T12:25:04;101049.66;;;11.78;100.00
47104;BME280;32853;52.164;5.400;2023-02-22T12:28:13;101038.81;;;11.87;100.00
47104;BME280;32853;52.164;5.400;2023-02-22T12:30:43;101023.63;;;11.73;100.00
47104;BME280;32853;52.164;5.400;2023-02-22T12:33:16;101011.34;;;11.75;100.00
47104;BME280;32853;52.164;5.400;2023-02-22T12:36:07;101035.53;;;12.02;100.00
47104;BME280;32853;52.164;5.400;2023-02-22T12:38:43;101003.56;;;11.72;100.00
47104;BME280;32853;52.164;5.400;2023-02-22T12:41:24;101003.84;;;11.88;100.00
47104;BME280;32853;52.164;5.400;2023-02-22T12:46:45;100899.19;;;11.43;100.00
47104;BME280;32853;52.164;5.400;2023-02-22T12:49:40;101016.44;;;12.19;100.00
47104;BME280;32853;52.164;5.400;2023-02-22T12:52:55;101014.19;;;12.11;100.00
47104;BME280;32853;52.164;5.400;2023-02-22T12:55:30;101022.50;;;12.21;100.00
47104;BME280;32853;52.164;5.400;2023-02-22T13:01:10;101016.41;;;12.20;100.00
47104;BME280;32853;52.164;5.400;2023-02-22T13:03:40;101015.13;;;12.29;100.00
47104;BME280;32853;52.164;5.400;2023-02-22T13:12:38;101011.91;;;12.43;100.00
47104;BME280;32853;52.164;5.400;2023-02-22T13:14:40;101020.72;;;12.61;100.00
47104;BME280;32853;52.164;5.400;2023-02-22T13:17:35;101017.03;;;12.65;100.00
47104;BME280;32853;52.164;5.400;2023-02-22T13:20:28;101001.91;;;12.51;100.00
47104;BME280;32853;52.164;5.400;2023-02-22T13:23:02;101018.38;;;12.55;100.00
47104;BME280;32853;52.164;5.400;2023-02-22T13:30:43;101019.09;;;12.58;100.00
47104;BME280;32853;52.164;5.400;2023-02-22T13:33:18;101017.34;;;12.38;100.00
47104;BME280;32853;52.164;5.400;2023-02-22T13:36:12;101017.19;;;12.41;100.00
47104;BME280;32853;52.164;5.400;2023-02-22T13:47:11;101014.53;;;12.62;100.00
47104;BME280;32853;52.164;5.400;2023-02-22T13:49:50;101003.97;;;12.63;100.00
47104;BME280;32853;52.164;5.400;2023-02-22T13:52:28;101009.03;;;12.68;100.00
47104;BME280;32853;52.164;5.400;2023-02-22T13:55:30;100973.53;;;12.40;100.00
47104;BME280;32853;52.164;5.400;2023-02-22T13:58:08;100935.53;;;12.30;100.00
47104;BME280;32853;52.164;5.400;2023-02-22T14:00:46;101009.28;;;12.62;100.00
47104;BME280;32853;52.164;5.400;2023-02-22T14:03:37;101005.13;;;12.58;100.00
47104;BME280;32853;52.164;5.400;2023-02-22T14:06:36;101012.56;;;12.67;100.00
47104;BME280;32853;52.164;5.400;2023-02-22T14:09:07;100956.81;;;12.24;100.00
47104;BME280;32853;52.164;5.400;2023-02-22T14:14:13;100965.88;;;12.36;100.00
47104;BME280;32853;52.164;5.400;2023-02-22T14:16:42;101026.84;;;12.41;100.00
47104;BME280;32853;52.164;5.400;2023-02-22T14:19:23;101019.72;;;12.63;100.00
47104;BME280;32853;52.164;5.400;2023-02-22T14:22:03;101029.25;;;12.66;100.00
47104;BME280;32853;52.164;5.400;2023-02-22T14:24:45;101038.59;;;12.53;100.00
47104;BME280;32853;52.164;5.400;2023-02-22T14:27:16;101014.09;;;12.52;100.00
47104;BME280;32853;52.164;5.400;2023-02-22T14:29:59;100978.28;;;12.32;100.00
47104;BME280;32853;52.164;5.400;2023-02-22T14:32:32;101024.84;;;12.66;100.00
47104;BME280;32853;52.164;5.400;2023-02-22T14:35:11;100997.47;;;12.53;100.00
47104;BME280;32853;52.164;5.400;2023-02-22T14:37:41;101007.97;;;12.53;100.00
47104;BME280;32853;52.164;5.400;2023-02-22T14:40:31;101038.81;;;12.67;100.00
47104;BME280;32853;52.164;5.400;2023-02-22T14:43:05;101023.25;;;12.43;100.00
47104;BME280;32853;52.164;5.400;2023-02-22T14:45:40;101039.19;;;12.78;100.00
47104;BME280;32853;52.164;5.400;2023-02-22T14:48:26;100984.88;;;12.41;100.00
47104;BME280;32853;52.164;5.400;2023-02-22T14:50:54;100999.28;;;12.51;100.00
47104;BME280;32853;52.164;5.400;2023-02-22T14:53:26;101037.47;;;12.77;100.00
47104;BME280;32853;52.164;5.400;2023-02-22T14:56:00;101017.25;;;12.60;100.00
47104;BME280;32853;52.164;5.400;2023-02-22T14:58:54;101008.06;;;12.50;100.00
47104;BME280;32853;52.164;5.400;2023-02-22T15:03:50;100993.34;;;12.47;100.00
47104;BME280;32853;52.164;5.400;2023-02-22T15:06:27;100986.53;;;12.43;100.00
47104;BME280;32853;52.164;5.400;2023-02-22T15:09:12;101031.50;;;12.73;100.00
47104;BME280;32853;52.164;5.400;2023-02-22T15:11:39;101026.31;;;12.53;100.00
47104;BME280;32853;52.164;5.400;2023-02-22T15:14:37;101022.22;;;12.66;100.00
47104;BME280;32853;52.164;5.400;2023-02-22T15:17:25;101022.84;;;12.71;100.00
47104;BME280;32853;52.164;5.400;2023-02-22T15:19:53;101022.66;;;12.76;100.00
47104;BME280;32853;52.164;5.400;2023-02-22T15:22:25;101011.50;;;12.71;100.00
47104;BME280;32853;52.164;5.400;2023-02-22T15:25:07;101012.63;;;12.84;100.00
47104;BME280;32853;52.164;5.400;2023-02-22T15:27:45;100969.03;;;12.44;100.00
47104;BME280;32853;52.164;5.400;2023-02-22T15:30:22;101030.53;;;12.76;100.00
47104;BME280;32853;52.164;5.400;2023-02-22T15:32:53;101029.44;;;12.80;100.00
47104;BME280;32853;52.164;5.400;2023-02-22T15:38:28;101017.66;;;12.70;100.00
47104;BME280;32853;52.164;5.400;2023-02-22T15:41:05;101031.22;;;12.79;100.00
47104;BME280;32853;52.164;5.400;2023-02-22T15:43:42;101030.88;;;12.68;100.00
47104;BME280;32853;52.164;5.400;2023-02-22T15:46:11;101033.41;;;12.70;100.00
47104;BME280;32853;52.164;5.400;2023-02-22T15:48:38;101032.00;;;12.82;100.00
47104;BME280;32853;52.164;5.400;2023-02-22T15:51:11;101042.31;;;12.86;100.00
47104;BME280;32853;52.164;5.400;2023-02-22T15:53:51;100876.66;;;11.79;100.00
47104;BME280;32853;52.164;5.400;2023-02-22T15:56:28;101040.38;;;12.90;100.00
47104;BME280;32853;52.164;5.400;2023-02-22T15:59:00;101040.31;;;12.91;100.00
47104;BME280;32853;52.164;5.400;2023-02-22T16:01:28;101030.94;;;12.67;100.00
47104;BME280;32853;52.164;5.400;2023-02-22T16:03:57;101038.81;;;12.86;100.00
47104;BME280;32853;52.164;5.400;2023-02-22T16:06:36;101031.44;;;12.75;100.00
47104;BME280;32853;52.164;5.400;2023-02-22T16:11:48;101043.47;;;12.60;100.00
47104;BME280;32853;52.164;5.400;2023-02-22T16:14:30;101050.88;;;12.71;100.00
47104;BME280;32853;52.164;5.400;2023-02-22T16:17:33;101046.47;;;12.71;100.00
47104;BME280;32853;52.164;5.400;2023-02-22T16:22:55;101031.25;;;12.40;100.00
47104;BME280;32853;52.164;5.400;2023-02-22T16:25:30;101061.13;;;12.57;100.00
47104;BME280;32853;52.164;5.400;2023-02-22T16:28:25;101072.34;;;12.60;100.00
47104;BME280;32853;52.164;5.400;2023-02-22T16:31:07;101067.56;;;12.49;100.00
47104;BME280;32853;52.164;5.400;2023-02-22T16:33:38;101026.28;;;12.34;100.00
47104;BME280;32853;52.164;5.400;2023-02-22T16:36:15;101045.56;;;12.33;100.00
47104;BME280;32853;52.164;5.400;2023-02-22T16:38:47;101026.38;;;12.12;100.00
47104;BME280;32853;52.164;5.400;2023-02-22T16:41:17;101028.53;;;12.03;100.00
47104;BME280;32853;52.164;5.400;2023-02-22T16:43:45;101078.59;;;12.37;100.00
47104;BME280;32853;52.164;5.400;2023-02-22T16:46:25;101051.41;;;12.19;100.00
47104;BME280;32853;52.164;5.400;2023-02-22T16:48:50;101075.00;;;12.19;100.00
47104;BME280;32853;52.164;5.400;2023-02-22T16:51:22;101078.59;;;12.37;100.00
47104;BME280;32853;52.164;5.400;2023-02-22T16:53:59;101073.66;;;12.30;100.00
47104;BME280;32853;52.164;5.400;2023-02-22T16:56:27;101082.81;;;12.21;100.00
47104;BME280;32853;52.164;5.400;2023-02-22T16:58:53;101082.75;;;12.23;100.00
47104;BME280;32853;52.164;5.400;2023-02-22T17:01:19;101072.03;;;12.27;100.00
47104;BME280;32853;52.164;5.400;2023-02-22T17:03:45;101076.75;;;12.19;100.00
47104;BME280;32853;52.164;5.400;2023-02-22T17:06:29;101073.41;;;12.15;100.00
47104;BME280;32853;52.164;5.400;2023-02-22T17:08:58;101079.59;;;12.14;100.00
47104;BME280;32853;52.164;5.400;2023-02-22T17:11:24;101080.38;;;12.16;100.00
47104;BME280;32853;52.164;5.400;2023-02-22T17:13:50;101064.56;;;11.98;100.00
47104;BME280;32853;52.164;5.400;2023-02-22T17:16:28;101086.81;;;12.09;100.00
47104;BME280;32853;52.164;5.400;2023-02-22T17:19:02;101044.91;;;11.87;100.00
47104;BME280;32853;52.164;5.400;2023-02-22T17:21:33;101055.63;;;11.81;100.00
47104;BME280;32853;52.164;5.400;2023-02-22T17:24:02;101108.34;;;12.16;100.00
47104;BME280;32853;52.164;5.400;2023-02-22T17:26:27;101104.88;;;12.15;100.00
47104;BME280;32853;52.164;5.400;2023-02-22T17:28:52;101108.22;;;12.19;100.00
47104;BME280;32853;52.164;5.400;2023-02-22T17:31:20;101094.53;;;12.12;100.00
47104;BME280;32853;52.164;5.400;2023-02-22T17:33:47;101113.03;;;12.09;100.00
47104;BME280;32853;52.164;5.400;2023-02-22T17:36:17;101110.28;;;11.90;100.00
47104;BME280;32853;52.164;5.400;2023-02-22T17:38:42;101110.50;;;12.06;100.00
47104;BME280;32853;52.164;5.400;2023-02-22T17:41:08;101101.13;;;12.01;100.00
47104;BME280;32853;52.164;5.400;2023-02-22T17:43:34;101070.44;;;11.82;100.00
47104;BME280;32853;52.164;5.400;2023-02-22T17:45:59;101055.56;;;11.61;100.00
47104;BME280;32853;52.164;5.400;2023-02-22T17:48:31;101121.38;;;11.97;100.00
47104;BME280;32853;52.164;5.400;2023-02-22T17:51:06;101123.94;;;11.99;100.00
47104;BME280;32853;52.164;5.400;2023-02-22T17:53:41;101118.63;;;12.00;100.00
47104;BME280;32853;52.164;5.400;2023-02-22T17:56:08;101077.69;;;11.76;100.00
47104;BME280;32853;52.164;5.400;2023-02-22T17:58:34;101099.19;;;11.84;100.00
47104;BME280;32853;52.164;5.400;2023-02-22T18:01:00;101109.38;;;11.91;100.00
47104;BME280;32853;52.164;5.400;2023-02-22T18:03:28;101108.22;;;11.99;100.00
47104;BME280;32853;52.164;5.400;2023-02-22T18:05:56;101101.75;;;11.85;100.00
47104;BME280;32853;52.164;5.400;2023-02-22T18:08:22;101127.81;;;12.10;100.00
47104;BME280;32853;52.164;5.400;2023-02-22T18:10:48;101091.53;;;11.79;100.00
47104;BME280;32853;52.164;5.400;2023-02-22T18:13:42;101131.69;;;12.02;100.00
47104;BME280;32853;52.164;5.400;2023-02-22T18:16:08;101127.94;;;12.07;100.00
47104;BME280;32853;52.164;5.400;2023-02-22T18:18:34;101136.19;;;11.98;100.00
47104;BME280;32853;52.164;5.400;2023-02-22T18:21:08;101137.06;;;11.99;100.00
47104;BME280;32853;52.164;5.400;2023-02-22T18:23:33;101133.59;;;11.98;100.00
47104;BME280;32853;52.164;5.400;2023-02-22T18:26:00;101139.28;;;12.08;100.00
47104;BME280;32853;52.164;5.400;2023-02-22T18:28:26;100989.16;;;10.98;100.00
47104;BME280;32853;52.164;5.400;2023-02-22T18:30:51;101051.13;;;11.41;100.00
47104;BME280;32853;52.164;5.400;2023-02-22T18:33:17;101020.69;;;11.39;100.00
47104;BME280;32853;52.164;5.400;2023-02-22T18:35:46;101119.50;;;12.01;100.00
47104;BME280;32853;52.164;5.400;2023-02-22T18:38:14;101143.19;;;12.19;100.00
47104;BME280;32853;52.164;5.400;2023-02-22T18:41:02;101113.56;;;11.96;100.00
47104;BME280;32853;52.164;5.400;2023-02-22T18:43:30;101140.19;;;12.07;100.00
47104;BME280;32853;52.164;5.400;2023-02-22T18:46:14;101136.47;;;12.12;100.00
47104;BME280;32853;52.164;5.400;2023-02-22T18:48:46;101078.84;;;11.69;100.00
47104;BME280;32853;52.164;5.400;2023-02-22T18:51:15;101139.16;;;12.11;100.00
47104;BME280;32853;52.164;5.400;2023-02-22T18:53:42;101118.44;;;12.05;100.00
47104;BME280;32853;52.164;5.400;2023-02-22T18:56:13;101134.63;;;12.14;100.00
47104;BME280;32853;52.164;5.400;2023-02-22T18:58:39;101060.28;;;11.73;100.00
47104;BME280;32853;52.164;5.400;2023-02-22T19:01:18;101122.25;;;12.18;100.00
47104;BME280;32853;52.164;5.400;2023-02-22T19:03:50;101084.66;;;11.97;100.00
47104;BME280;32853;52.164;5.400;2023-02-22T19:06:19;101125.66;;;12.00;100.00
47104;BME280;32853;52.164;5.400;2023-02-22T19:08:48;101086.22;;;11.81;100.00
47104;BME280;32853;52.164;5.400;2023-02-22T19:11:20;101081.91;;;11.80;100.00
47104;BME280;32853;52.164;5.400;2023-02-22T19:13:47;101129.56;;;11.89;100.00
47104;BME280;32853;52.164;5.400;2023-02-22T19:16:14;101130.91;;;12.00;100.00
47104;BME280;32853;52.164;5.400;2023-02-22T19:18:40;101101.13;;;11.79;100.00
47104;BME280;32853;52.164;5.400;2023-02-22T19:21:11;101127.16;;;12.05;100.00
47104;BME280;32853;52.164;5.400;2023-02-22T19:23:38;101072.88;;;11.65;100.00
47104;BME280;32853;52.164;5.400;2023-02-22T19:26:24;101114.69;;;11.90;100.00
47104;BME280;32853;52.164;5.400;2023-02-22T19:28:57;101136.78;;;12.05;100.00
47104;BME280;32853;52.164;5.400;2023-02-22T19:31:26;101132.66;;;11.99;100.00
47104;BME280;32853;52.164;5.400;2023-02-22T19:33:57;101006.50;;;11.22;100.00
47104;BME280;32853;52.164;5.400;2023-02-22T19:36:24;101014.28;;;11.24;100.00
47104;BME280;32853;52.164;5.400;2023-02-22T19:38:50;101108.16;;;11.78;100.00
47104;BME280;32853;52.164;5.400;2023-02-22T19:41:18;101140.16;;;12.08;100.00
47104;BME280;32853;52.164;5.400;2023-02-22T19:43:45;101130.53;;;11.87;100.00
47104;BME280;32853;52.164;5.400;2023-02-22T19:46:11;101143.09;;;12.01;100.00
47104;BME280;32853;52.164;5.400;2023-02-22T19:48:38;100960.03;;;10.84;100.00
47104;BME280;32853;52.164;5.400;2023-02-22T19:51:07;101088.84;;;11.59;100.00
47104;BME280;32853;52.164;5.400;2023-02-22T19:53:34;101075.88;;;11.56;100.00
47104;BME280;32853;52.164;5.400;2023-02-22T19:56:15;101066.47;;;11.50;100.00
47104;BME280;32853;52.164;5.400;2023-02-22T19:58:44;101152.81;;;11.97;100.00
47104;BME280;32853;52.164;5.400;2023-02-22T20:03:40;101152.69;;;11.78;100.00
47104;BME280;32853;52.164;5.400;2023-02-22T20:06:07;101167.53;;;11.79;100.00
47104;BME280;32853;52.164;5.400;2023-02-22T20:08:35;101163.16;;;11.78;100.00
47104;BME280;32853;52.164;5.400;2023-02-22T20:11:01;101134.03;;;11.42;100.00
47104;BME280;32853;52.164;5.400;2023-02-22T20:13:26;101096.44;;;11.21;100.00
47104;BME280;32853;52.164;5.400;2023-02-22T20:15:51;101156.81;;;11.62;100.00
47104;BME280;32853;52.164;5.400;2023-02-22T20:18:21;101144.81;;;11.56;100.00
47104;BME280;32853;52.164;5.400;2023-02-22T20:20:50;101177.28;;;11.74;100.00
47104;BME280;32853;52.164;5.400;2023-02-22T20:23:16;101179.91;;;11.74;100.00
47104;BME280;32853;52.164;5.400;2023-02-22T20:26:04;101177.19;;;11.77;100.00
47104;BME280;32853;52.164;5.400;2023-02-22T20:28:29;101111.22;;;11.22;100.00
47104;BME280;32853;52.164;5.400;2023-02-22T20:31:00;101150.63;;;11.41;100.00
47104;BME280;32853;52.164;5.400;2023-02-22T20:33:25;101169.66;;;11.46;100.00
47104;BME280;32853;52.164;5.400;2023-02-22T20:36:05;101120.84;;;11.22;100.00
47104;BME280;32853;52.164;5.400;2023-02-22T20:38:30;101159.81;;;11.53;100.00
47104;BME280;32853;52.164;5.400;2023-02-22T20:41:06;101108.88;;;11.15;100.00
47104;BME280;32853;52.164;5.400;2023-02-22T20:43:38;101178.19;;;11.51;100.00
47104;BME280;32853;52.164;5.400;2023-02-22T20:46:04;101149.34;;;11.29;100.00
47104;BME280;32853;52.164;5.400;2023-02-22T20:48:32;101187.53;;;11.58;100.00
47104;BME280;32853;52.164;5.400;2023-02-22T20:51:08;101169.06;;;11.61;100.00
47104;BME280;32853;52.164;5.400;2023-02-22T20:53:34;101164.72;;;11.60;100.00
47104;BME280;32853;52.164;5.400;2023-02-22T20:56:20;101175.84;;;11.67;100.00
47104;BME280;32853;52.164;5.400;2023-02-22T20:58:46;101176.84;;;11.63;100.00
47104;BME280;32853;52.164;5.400;2023-02-22T21:01:13;101142.63;;;11.46;100.00
47104;BME280;32853;52.164;5.400;2023-02-22T21:03:41;101188.81;;;11.70;100.00
47104;BME280;32853;52.164;5.400;2023-02-22T21:06:28;101196.66;;;11.70;100.00
47104;BME280;32853;52.164;5.400;2023-02-22T21:08:56;101054.34;;;10.81;100.00
47104;BME280;32853;52.164;5.400;2023-02-22T21:11:23;101199.34;;;11.69;100.00
47104;BME280;32853;52.164;5.400;2023-02-22T21:13:52;101124.84;;;11.30;100.00